sensor_id;sensor_type;location;lat;lon;timestamp;temperature;humidity
22430;DHT22;11382;48.086;11.632;2023-02-11T00:01:49;-3.20;99.90
22430;DHT22;11382;48.086;11.632;2023-02-11T00:04:17;-3.20;99.90
22430;DHT22;11382;48.086;11.632;2023-02-11T00:06:45;-3.30;99.90
22430;DHT22;11382;48.086;11.632;2023-02-11T00:09:13;-3.40;99.90
22430;DHT22;11382;48.086;11.632;2023-02-11T00:11:41;-3.40;99.90
22430;DHT22;11382;48.086;11.632;2023-02-11T00:14:09;-3.50;99.90
22430;DHT22;11382;48.086;11.632;2023-02-11T00:16:38;-3.60;99.90
22430;DHT22;11382;48.086;11.632;2023-02-11T00:19:08;-3.50;99.90
22430;DHT22;11382;48.086;11.632;2023-02-11T00:21:36;-3.60;99.90
22430;DHT22;11382;48.086;11.632;2023-02-11T00:24:04;-3.60;99.90
22430;DHT22;11382;48.086;11.632;2023-02-11T00:26:33;-3.50;99.90
22430;DHT22;11382;48.086;11.632;2023-02-11T00:29:03;-3.40;99.90
22430;DHT22;11382;48.086;11.632;2023-02-11T00:31:31;-3.50;99.90
22430;DHT22;11382;48.086;11.632;2023-02-11T00:33:59;-3.60;99.90
22430;DHT22;11382;48.086;11.632;2023-02-11T00:36:29;-3.70;99.90
22430;DHT22;11382;48.086;11.632;2023-02-11T00:38:57;-3.70;99.90
22430;DHT22;11382;48.086;11.632;2023-02-11T00:41:27;-3.70;99.90
22430;DHT22;11382;48.086;11.632;2023-02-11T00:43:57;-3.80;99.90
22430;DHT22;11382;48.086;11.632;2023-02-11T00:46:26;-3.80;99.90
22430;DHT22;11382;48.086;11.632;2023-02-11T00:48:54;-3.90;99.90
22430;DHT22;11382;48.086;11.632;2023-02-11T00:51:24;-3.80;99.90
22430;DHT22;11382;48.086;11.632;2023-02-11T00:53:53;-3.90;99.90
22430;DHT22;11382;48.086;11.632;2023-02-11T00:56:22;-3.90;99.90
22430;DHT22;11382;48.086;11.632;2023-02-11T00:58:50;-4.00;99.90
22430;DHT22;11382;48.086;11.632;2023-02-11T01:01:19;-3.90;99.90
22430;DHT22;11382;48.086;11.632;2023-02-11T01:03:47;-3.90;99.90
22430;DHT22;11382;48.086;11.632;2023-02-11T01:06:15;-4.00;99.90
22430;DHT22;11382;48.086;11.632;2023-02-11T01:08:43;-4.00;99.90
22430;DHT22;11382;48.086;11.632;2023-02-11T01:11:15;-3.90;99.90
22430;DHT22;11382;48.086;11.632;2023-02-11T01:13:44;-3.80;99.90
22430;DHT22;11382;48.086;11.632;2023-02-11T01:16:15;-3.70;99.90
22430;DHT22;11382;48.086;11.632;2023-02-11T01:18:45;-3.80;99.90
22430;DHT22;11382;48.086;11.632;2023-02-11T01:21:13;-3.90;99.90
22430;DHT22;11382;48.086;11.632;2023-02-11T01:23:42;-4.00;99.90
22430;DHT22;11382;48.086;11.632;2023-02-11T01:26:11;-4.00;99.90
22430;DHT22;11382;48.086;11.632;2023-02-11T01:28:41;-4.00;99.90
22430;DHT22;11382;48.086;11.632;2023-02-11T01:31:10;-3.80;99.90
22430;DHT22;11382;48.086;11.632;2023-02-11T01:33:38;-3.60;99.90
22430;DHT22;11382;48.086;11.632;2023-02-11T01:36:07;-3.50;99.90
22430;DHT22;11382;48.086;11.632;2023-02-11T01:38:37;-3.50;99.90
22430;DHT22;11382;48.086;11.632;2023-02-11T01:41:09;-3.50;99.90
22430;DHT22;11382;48.086;11.632;2023-02-11T01:43:42;-3.60;99.90
22430;DHT22;11382;48.086;11.632;2023-02-11T01:46:33;-3.80;99.90
22430;DHT22;11382;48.086;11.632;2023-02-11T01:49:05;-3.90;99.90
22430;DHT22;11382;48.086;11.632;2023-02-11T01:51:37;-3.90;99.90
22430;DHT22;11382;48.086;11.632;2023-02-11T01:54:08;-3.90;99.90
22430;DHT22;11382;48.086;11.632;2023-02-11T01:57:00;-4.00;99.90
22430;DHT22;11382;48.086;11.632;2023-02-11T02:00:04;-4.00;99.90
22430;DHT22;11382;48.086;11.632;2023-02-11T02:02:45;-4.00;99.90
22430;DHT22;11382;48.086;11.632;2023-02-11T02:05:21;-3.90;99.90
22430;DHT22;11382;48.086;11.632;2023-02-11T02:07:55;-4.00;99.90
22430;DHT22;11382;48.086;11.632;2023-02-11T02:10:27;-4.10;99.90
22430;DHT22;11382;48.086;11.632;2023-02-11T02:12:57;-4.10;99.90
22430;DHT22;11382;48.086;11.632;2023-02-11T02:15:34;-4.10;99.90
22430;DHT22;11382;48.086;11.632;2023-02-11T02:18:11;-4.10;99.90
22430;DHT22;11382;48.086;11.632;2023-02-11T02:24:19;-4.20;99.90
22430;DHT22;11382;48.086;11.632;2023-02-11T02:27:08;-4.20;99.90
22430;DHT22;11382;48.086;11.632;2023-02-11T02:30:09;-4.30;99.90
22430;DHT22;11382;48.086;11.632;2023-02-11T02:32:48;-4.30;99.90
22430;DHT22;11382;48.086;11.632;2023-02-11T02:35:26;-4.30;99.90
22430;DHT22;11382;48.086;11.632;2023-02-11T02:38:00;-4.40;99.90
22430;DHT22;11382;48.086;11.632;2023-02-11T02:40:32;-4.40;99.90
22430;DHT22;11382;48.086;11.632;2023-02-11T02:43:02;-4.40;99.90
22430;DHT22;11382;48.086;11.632;2023-02-11T02:45:31;-4.40;99.90
22430;DHT22;11382;48.086;11.632;2023-02-11T02:48:01;-4.50;99.90
22430;DHT22;11382;48.086;11.632;2023-02-11T02:50:31;-4.40;99.90
22430;DHT22;11382;48.086;11.632;2023-02-11T02:53:13;-4.30;99.90
22430;DHT22;11382;48.086;11.632;2023-02-11T02:55:53;-4.30;99.90
22430;DHT22;11382;48.086;11.632;2023-02-11T02:58:48;-4.30;99.90
22430;DHT22;11382;48.086;11.632;2023-02-11T03:01:27;-4.40;99.90
22430;DHT22;11382;48.086;11.632;2023-02-11T03:04:04;-4.50;99.90
22430;DHT22;11382;48.086;11.632;2023-02-11T03:06:45;-4.50;99.90
22430;DHT22;11382;48.086;11.632;2023-02-11T03:09:23;-4.50;99.90
22430;DHT22;11382;48.086;11.632;2023-02-11T03:11:53;-4.30;99.90
22430;DHT22;11382;48.086;11.632;2023-02-11T03:14:23;-4.10;99.90
22430;DHT22;11382;48.086;11.632;2023-02-11T03:16:53;-4.00;99.90
22430;DHT22;11382;48.086;11.632;2023-02-11T03:19:27;-3.80;99.90
22430;DHT22;11382;48.086;11.632;2023-02-11T03:21:56;-3.70;99.90
22430;DHT22;11382;48.086;11.632;2023-02-11T03:24:28;-3.60;99.90
22430;DHT22;11382;48.086;11.632;2023-02-11T03:27:00;-3.50;99.90
22430;DHT22;11382;48.086;11.632;2023-02-11T03:29:33;-3.40;99.90
22430;DHT22;11382;48.086;11.632;2023-02-11T03:32:05;-3.30;99.90
22430;DHT22;11382;48.086;11.632;2023-02-11T03:34:42;-3.20;99.90
22430;DHT22;11382;48.086;11.632;2023-02-11T03:37:13;-3.20;99.90
22430;DHT22;11382;48.086;11.632;2023-02-11T03:39:44;-3.10;99.90
22430;DHT22;11382;48.086;11.632;2023-02-11T03:42:15;-3.00;99.90
22430;DHT22;11382;48.086;11.632;2023-02-11T03:44:47;-2.90;99.90
22430;DHT22;11382;48.086;11.632;2023-02-11T03:47:18;-2.90;99.90
22430;DHT22;11382;48.086;11.632;2023-02-11T03:49:51;-2.80;99.90
22430;DHT22;11382;48.086;11.632;2023-02-11T03:52:21;-2.90;99.90
22430;DHT22;11382;48.086;11.632;2023-02-11T03:54:53;-2.90;99.90
22430;DHT22;11382;48.086;11.632;2023-02-11T03:57:23;-2.90;99.90
22430;DHT22;11382;48.086;11.632;2023-02-11T03:59:55;-2.80;99.90
22430;DHT22;11382;48.086;11.632;2023-02-11T04:02:26;-2.80;99.90
22430;DHT22;11382;48.086;11.632;2023-02-11T04:04:57;-2.90;99.90
22430;DHT22;11382;48.086;11.632;2023-02-11T04:07:26;-2.90;99.90
22430;DHT22;11382;48.086;11.632;2023-02-11T04:09:54;-2.90;99.90
22430;DHT22;11382;48.086;11.632;2023-02-11T04:12:22;-3.00;99.90
22430;DHT22;11382;48.086;11.632;2023-02-11T04:14:50;-3.00;99.90
22430;DHT22;11382;48.086;11.632;2023-02-11T04:17:17;-2.90;99.90
22430;DHT22;11382;48.086;11.632;2023-02-11T04:19:45;-3.10;99.90
22430;DHT22;11382;48.086;11.632;2023-02-11T04:22:15;-3.20;99.90
22430;DHT22;11382;48.086;11.632;2023-02-11T04:24:43;-3.40;99.90
22430;DHT22;11382;48.086;11.632;2023-02-11T04:27:11;-3.50;99.90
22430;DHT22;11382;48.086;11.632;2023-02-11T04:29:39;-3.50;99.90
22430;DHT22;11382;48.086;11.632;2023-02-11T04:32:07;-3.40;99.90
22430;DHT22;11382;48.086;11.632;2023-02-11T04:34:35;-3.20;99.90
22430;DHT22;11382;48.086;11.632;2023-02-11T04:37:03;-3.20;99.90
22430;DHT22;11382;48.086;11.632;2023-02-11T04:39:33;-3.40;99.90
22430;DHT22;11382;48.086;11.632;2023-02-11T04:42:01;-3.40;99.90
22430;DHT22;11382;48.086;11.632;2023-02-11T04:44:29;-3.40;99.90
22430;DHT22;11382;48.086;11.632;2023-02-11T04:46:57;-3.50;99.90
22430;DHT22;11382;48.086;11.632;2023-02-11T04:49:25;-3.50;99.90
22430;DHT22;11382;48.086;11.632;2023-02-11T04:51:53;-3.50;99.90
22430;DHT22;11382;48.086;11.632;2023-02-11T04:54:21;-3.60;99.90
22430;DHT22;11382;48.086;11.632;2023-02-11T04:56:51;-3.50;99.90
22430;DHT22;11382;48.086;11.632;2023-02-11T04:59:18;-3.50;99.90
22430;DHT22;11382;48.086;11.632;2023-02-11T05:01:46;-3.50;99.90
22430;DHT22;11382;48.086;11.632;2023-02-11T05:04:15;-3.60;99.90
22430;DHT22;11382;48.086;11.632;2023-02-11T05:06:43;-3.60;99.90
22430;DHT22;11382;48.086;11.632;2023-02-11T05:09:11;-3.60;99.90
22430;DHT22;11382;48.086;11.632;2023-02-11T05:11:39;-3.60;99.90
22430;DHT22;11382;48.086;11.632;2023-02-11T05:14:08;-3.60;99.90
22430;DHT22;11382;48.086;11.632;2023-02-11T05:16:36;-3.60;99.90
22430;DHT22;11382;48.086;11.632;2023-02-11T05:19:05;-3.60;99.90
22430;DHT22;11382;48.086;11.632;2023-02-11T05:21:33;-3.70;99.90
22430;DHT22;11382;48.086;11.632;2023-02-11T05:24:01;-3.70;99.90
22430;DHT22;11382;48.086;11.632;2023-02-11T05:26:29;-3.70;99.90
22430;DHT22;11382;48.086;11.632;2023-02-11T05:28:57;-3.60;99.90
22430;DHT22;11382;48.086;11.632;2023-02-11T05:31:27;-3.60;99.90
22430;DHT22;11382;48.086;11.632;2023-02-11T05:33:55;-3.60;99.90
22430;DHT22;11382;48.086;11.632;2023-02-11T05:36:23;-3.40;99.90
22430;DHT22;11382;48.086;11.632;2023-02-11T05:38:51;-3.40;99.90
22430;DHT22;11382;48.086;11.632;2023-02-11T05:41:19;-3.30;99.90
22430;DHT22;11382;48.086;11.632;2023-02-11T05:43:47;-3.20;99.90
22430;DHT22;11382;48.086;11.632;2023-02-11T05:46:15;-3.10;99.90
22430;DHT22;11382;48.086;11.632;2023-02-11T05:48:47;-3.00;99.90
22430;DHT22;11382;48.086;11.632;2023-02-11T05:51:16;-2.90;99.90
22430;DHT22;11382;48.086;11.632;2023-02-11T05:53:44;-2.80;99.90
22430;DHT22;11382;48.086;11.632;2023-02-11T05:56:11;-2.70;99.90
22430;DHT22;11382;48.086;11.632;2023-02-11T05:58:40;-2.70;99.90
22430;DHT22;11382;48.086;11.632;2023-02-11T06:01:08;-2.70;99.90
22430;DHT22;11382;48.086;11.632;2023-02-11T06:03:36;-2.50;99.90
22430;DHT22;11382;48.086;11.632;2023-02-11T06:06:08;-2.40;99.90
22430;DHT22;11382;48.086;11.632;2023-02-11T06:08:37;-2.50;99.90
22430;DHT22;11382;48.086;11.632;2023-02-11T06:11:06;-2.50;99.90
22430;DHT22;11382;48.086;11.632;2023-02-11T06:13:34;-2.30;99.90
22430;DHT22;11382;48.086;11.632;2023-02-11T06:16:02;-2.20;99.90
22430;DHT22;11382;48.086;11.632;2023-02-11T06:18:30;-2.10;99.90
22430;DHT22;11382;48.086;11.632;2023-02-11T06:20:59;-2.20;99.90
22430;DHT22;11382;48.086;11.632;2023-02-11T06:23:28;-2.10;99.90
22430;DHT22;11382;48.086;11.632;2023-02-11T06:26:00;-2.00;99.90
22430;DHT22;11382;48.086;11.632;2023-02-11T06:28:28;-1.90;99.90
22430;DHT22;11382;48.086;11.632;2023-02-11T06:30:58;-1.90;99.90
22430;DHT22;11382;48.086;11.632;2023-02-11T06:33:26;-1.90;99.90
22430;DHT22;11382;48.086;11.632;2023-02-11T06:35:54;-1.80;99.90
22430;DHT22;11382;48.086;11.632;2023-02-11T06:38:23;-1.70;99.90
22430;DHT22;11382;48.086;11.632;2023-02-11T06:40:53;-1.60;99.90
22430;DHT22;11382;48.086;11.632;2023-02-11T06:43:21;-1.60;99.90
22430;DHT22;11382;48.086;11.632;2023-02-11T06:45:52;-1.60;99.90
22430;DHT22;11382;48.086;11.632;2023-02-11T06:48:21;-1.50;99.90
22430;DHT22;11382;48.086;11.632;2023-02-11T06:50:49;-1.40;99.90
22430;DHT22;11382;48.086;11.632;2023-02-11T06:53:17;-1.30;99.90
22430;DHT22;11382;48.086;11.632;2023-02-11T06:55:45;-1.40;99.90
22430;DHT22;11382;48.086;11.632;2023-02-11T06:58:15;-1.30;99.90
22430;DHT22;11382;48.086;11.632;2023-02-11T07:00:44;-1.20;99.90
22430;DHT22;11382;48.086;11.632;2023-02-11T07:03:12;-1.00;99.90
22430;DHT22;11382;48.086;11.632;2023-02-11T07:05:41;-0.90;99.90
22430;DHT22;11382;48.086;11.632;2023-02-11T07:08:09;-0.70;99.90
22430;DHT22;11382;48.086;11.632;2023-02-11T07:10:37;-0.60;99.90
22430;DHT22;11382;48.086;11.632;2023-02-11T07:13:05;-0.40;99.90
22430;DHT22;11382;48.086;11.632;2023-02-11T07:15:35;-0.30;99.90
22430;DHT22;11382;48.086;11.632;2023-02-11T07:18:03;-0.30;99.90
22430;DHT22;11382;48.086;11.632;2023-02-11T07:20:32;-0.40;99.90
22430;DHT22;11382;48.086;11.632;2023-02-11T07:23:00;-0.30;99.90
22430;DHT22;11382;48.086;11.632;2023-02-11T07:25:28;0.00;99.90
22430;DHT22;11382;48.086;11.632;2023-02-11T07:27:56;0.10;99.90
22430;DHT22;11382;48.086;11.632;2023-02-11T07:30:24;0.10;99.90
22430;DHT22;11382;48.086;11.632;2023-02-11T07:32:53;0.20;99.90
22430;DHT22;11382;48.086;11.632;2023-02-11T07:35:23;0.30;99.90
22430;DHT22;11382;48.086;11.632;2023-02-11T07:37:51;0.40;99.90
22430;DHT22;11382;48.086;11.632;2023-02-11T07:40:19;0.50;99.90
22430;DHT22;11382;48.086;11.632;2023-02-11T07:42:47;0.40;99.90
22430;DHT22;11382;48.086;11.632;2023-02-11T07:45:18;0.40;99.90
22430;DHT22;11382;48.086;11.632;2023-02-11T07:47:46;0.60;99.90
22430;DHT22;11382;48.086;11.632;2023-02-11T07:50:19;0.70;99.90
22430;DHT22;11382;48.086;11.632;2023-02-11T07:52:47;0.70;99.90
22430;DHT22;11382;48.086;11.632;2023-02-11T07:55:15;0.80;99.90
22430;DHT22;11382;48.086;11.632;2023-02-11T07:57:43;1.00;99.90
22430;DHT22;11382;48.086;11.632;2023-02-11T08:00:12;1.00;99.90
22430;DHT22;11382;48.086;11.632;2023-02-11T08:02:41;1.00;99.90
22430;DHT22;11382;48.086;11.632;2023-02-11T08:05:08;1.20;99.90
22430;DHT22;11382;48.086;11.632;2023-02-11T08:07:38;1.30;99.90
22430;DHT22;11382;48.086;11.632;2023-02-11T08:10:06;1.50;99.90
22430;DHT22;11382;48.086;11.632;2023-02-11T08:12:34;1.60;99.90
22430;DHT22;11382;48.086;11.632;2023-02-11T08:15:02;1.60;99.90
22430;DHT22;11382;48.086;11.632;2023-02-11T08:17:30;1.60;99.90
22430;DHT22;11382;48.086;11.632;2023-02-11T08:19:58;1.70;99.90
22430;DHT22;11382;48.086;11.632;2023-02-11T08:22:27;2.00;99.90
22430;DHT22;11382;48.086;11.632;2023-02-11T08:24:59;2.40;99.90
22430;DHT22;11382;48.086;11.632;2023-02-11T08:27:27;2.70;99.90
22430;DHT22;11382;48.086;11.632;2023-02-11T08:29:55;3.00;99.90
22430;DHT22;11382;48.086;11.632;2023-02-11T08:32:25;3.30;99.90
22430;DHT22;11382;48.086;11.632;2023-02-11T08:34:53;3.60;99.90
22430;DHT22;11382;48.086;11.632;2023-02-11T08:37:21;3.60;99.90
22430;DHT22;11382;48.086;11.632;2023-02-11T08:39:49;3.90;99.90
22430;DHT22;11382;48.086;11.632;2023-02-11T08:42:19;4.10;99.90
22430;DHT22;11382;48.086;11.632;2023-02-11T08:44:46;4.00;99.90
22430;DHT22;11382;48.086;11.632;2023-02-11T08:47:14;4.10;99.90
22430;DHT22;11382;48.086;11.632;2023-02-11T08:49:42;4.20;99.90
22430;DHT22;11382;48.086;11.632;2023-02-11T08:52:10;4.00;99.90
22430;DHT22;11382;48.086;11.632;2023-02-11T08:54:38;4.20;99.90
22430;DHT22;11382;48.086;11.632;2023-02-11T08:57:06;4.30;99.90
22430;DHT22;11382;48.086;11.632;2023-02-11T08:59:36;4.50;99.90
22430;DHT22;11382;48.086;11.632;2023-02-11T09:02:08;4.50;99.90
22430;DHT22;11382;48.086;11.632;2023-02-11T09:04:37;4.80;99.90
22430;DHT22;11382;48.086;11.632;2023-02-11T09:07:05;4.50;99.90
22430;DHT22;11382;48.086;11.632;2023-02-11T09:09:32;4.30;99.90
22430;DHT22;11382;48.086;11.632;2023-02-11T09:12:00;4.30;99.90
22430;DHT22;11382;48.086;11.632;2023-02-11T09:14:28;4.60;99.90
22430;DHT22;11382;48.086;11.632;2023-02-11T09:16:58;4.60;99.90
22430;DHT22;11382;48.086;11.632;2023-02-11T09:19:26;5.00;99.90
22430;DHT22;11382;48.086;11.632;2023-02-11T09:21:54;4.90;99.90
22430;DHT22;11382;48.086;11.632;2023-02-11T09:24:22;5.00;99.90
22430;DHT22;11382;48.086;11.632;2023-02-11T09:26:50;4.90;99.90
22430;DHT22;11382;48.086;11.632;2023-02-11T09:29:18;4.60;99.90
22430;DHT22;11382;48.086;11.632;2023-02-11T09:31:49;4.50;99.90
22430;DHT22;11382;48.086;11.632;2023-02-11T09:34:18;4.50;99.90
22430;DHT22;11382;48.086;11.632;2023-02-11T09:36:46;4.80;99.90
22430;DHT22;11382;48.086;11.632;2023-02-11T09:39:16;4.80;99.90
22430;DHT22;11382;48.086;11.632;2023-02-11T09:42:12;4.70;99.90
22430;DHT22;11382;48.086;11.632;2023-02-11T09:44:46;4.90;99.90
22430;DHT22;11382;48.086;11.632;2023-02-11T09:47:26;4.70;99.90
22430;DHT22;11382;48.086;11.632;2023-02-11T09:50:00;4.60;99.90
22430;DHT22;11382;48.086;11.632;2023-02-11T09:52:35;4.70;99.90
22430;DHT22;11382;48.086;11.632;2023-02-11T09:55:05;4.90;99.90
22430;DHT22;11382;48.086;11.632;2023-02-11T09:57:38;5.30;99.90
22430;DHT22;11382;48.086;11.632;2023-02-11T10:00:17;5.20;99.90
22430;DHT22;11382;48.086;11.632;2023-02-11T10:03:05;5.20;99.90
22430;DHT22;11382;48.086;11.632;2023-02-11T10:05:54;5.60;99.90
22430;DHT22;11382;48.086;11.632;2023-02-11T10:08:29;5.80;99.00
22430;DHT22;11382;48.086;11.632;2023-02-11T10:11:05;6.10;98.50
22430;DHT22;11382;48.086;11.632;2023-02-11T10:13:49;7.40;97.50
22430;DHT22;11382;48.086;11.632;2023-02-11T10:16:30;7.80;96.30
22430;DHT22;11382;48.086;11.632;2023-02-11T10:19:09;9.70;93.80
22430;DHT22;11382;48.086;11.632;2023-02-11T10:21:52;10.00;91.80
22430;DHT22;11382;48.086;11.632;2023-02-11T10:24:21;10.30;90.30
22430;DHT22;11382;48.086;11.632;2023-02-11T10:26:50;10.00;90.30
22430;DHT22;11382;48.086;11.632;2023-02-11T10:29:30;9.80;89.20
22430;DHT22;11382;48.086;11.632;2023-02-11T10:32:02;9.60;89.40
22430;DHT22;11382;48.086;11.632;2023-02-11T10:34:32;9.30;89.80
22430;DHT22;11382;48.086;11.632;2023-02-11T10:37:01;8.50;90.20
22430;DHT22;11382;48.086;11.632;2023-02-11T10:39:30;8.30;90.70
22430;DHT22;11382;48.086;11.632;2023-02-11T10:42:01;7.90;91.20
22430;DHT22;11382;48.086;11.632;2023-02-11T10:44:35;7.90;91.70
22430;DHT22;11382;48.086;11.632;2023-02-11T10:47:09;8.50;91.50
22430;DHT22;11382;48.086;11.632;2023-02-11T10:49:39;8.40;91.00
22430;DHT22;11382;48.086;11.632;2023-02-11T10:52:19;8.50;91.00
22430;DHT22;11382;48.086;11.632;2023-02-11T10:54:56;8.70;91.50
22430;DHT22;11382;48.086;11.632;2023-02-11T10:57:29;9.80;90.00
22430;DHT22;11382;48.086;11.632;2023-02-11T11:00:00;10.30;89.30
22430;DHT22;11382;48.086;11.632;2023-02-11T11:02:31;10.50;86.50
22430;DHT22;11382;48.086;11.632;2023-02-11T11:05:03;11.00;84.40
22430;DHT22;11382;48.086;11.632;2023-02-11T11:07:34;11.60;82.50
22430;DHT22;11382;48.086;11.632;2023-02-11T11:10:05;11.40;82.10
22430;DHT22;11382;48.086;11.632;2023-02-11T11:12:36;11.70;82.50
22430;DHT22;11382;48.086;11.632;2023-02-11T11:15:17;11.80;80.40
22430;DHT22;11382;48.086;11.632;2023-02-11T11:17:47;11.40;79.30
22430;DHT22;11382;48.086;11.632;2023-02-11T11:20:22;11.10;79.60
22430;DHT22;11382;48.086;11.632;2023-02-11T11:23:09;10.40;79.50
22430;DHT22;11382;48.086;11.632;2023-02-11T11:25:43;9.90;81.00
22430;DHT22;11382;48.086;11.632;2023-02-11T11:28:21;10.10;82.10
22430;DHT22;11382;48.086;11.632;2023-02-11T11:30:51;10.50;81.30
22430;DHT22;11382;48.086;11.632;2023-02-11T11:33:23;11.00;80.40
22430;DHT22;11382;48.086;11.632;2023-02-11T11:35:58;10.90;79.60
22430;DHT22;11382;48.086;11.632;2023-02-11T11:38:29;10.80;77.50
22430;DHT22;11382;48.086;11.632;2023-02-11T11:41:20;10.20;77.50
22430;DHT22;11382;48.086;11.632;2023-02-11T11:44:00;9.80;79.70
22430;DHT22;11382;48.086;11.632;2023-02-11T11:46:32;9.60;80.30
22430;DHT22;11382;48.086;11.632;2023-02-11T11:49:16;10.00;78.80
22430;DHT22;11382;48.086;11.632;2023-02-11T11:51:50;9.90;76.80
22430;DHT22;11382;48.086;11.632;2023-02-11T11:54:24;10.30;76.00
22430;DHT22;11382;48.086;11.632;2023-02-11T11:56:56;10.40;76.20
22430;DHT22;11382;48.086;11.632;2023-02-11T11:59:26;10.50;75.60
22430;DHT22;11382;48.086;11.632;2023-02-11T12:02:10;10.60;74.70
22430;DHT22;11382;48.086;11.632;2023-02-11T12:05:00;11.10;75.00
22430;DHT22;11382;48.086;11.632;2023-02-11T12:07:44;11.20;73.40
22430;DHT22;11382;48.086;11.632;2023-02-11T12:10:30;11.70;73.20
22430;DHT22;11382;48.086;11.632;2023-02-11T12:13:08;11.70;71.80
22430;DHT22;11382;48.086;11.632;2023-02-11T12:15:52;11.50;71.60
22430;DHT22;11382;48.086;11.632;2023-02-11T12:18:35;11.10;73.20
22430;DHT22;11382;48.086;11.632;2023-02-11T12:21:19;10.60;72.40
22430;DHT22;11382;48.086;11.632;2023-02-11T12:24:02;10.70;75.20
22430;DHT22;11382;48.086;11.632;2023-02-11T12:26:39;10.90;75.60
22430;DHT22;11382;48.086;11.632;2023-02-11T12:29:19;10.70;75.00
22430;DHT22;11382;48.086;11.632;2023-02-11T12:31:59;10.60;74.90
22430;DHT22;11382;48.086;11.632;2023-02-11T12:34:51;10.40;74.70
22430;DHT22;11382;48.086;11.632;2023-02-11T12:37:30;10.20;74.60
22430;DHT22;11382;48.086;11.632;2023-02-11T12:40:12;10.00;74.40
22430;DHT22;11382;48.086;11.632;2023-02-11T12:42:54;9.80;73.80
22430;DHT22;11382;48.086;11.632;2023-02-11T12:46:06;9.80;73.60
22430;DHT22;11382;48.086;11.632;2023-02-11T12:48:48;9.80;73.60
22430;DHT22;11382;48.086;11.632;2023-02-11T12:51:27;9.60;74.50
22430;DHT22;11382;48.086;11.632;2023-02-11T12:54:17;9.80;73.90
22430;DHT22;11382;48.086;11.632;2023-02-11T12:56:51;9.80;74.10
22430;DHT22;11382;48.086;11.632;2023-02-11T12:59:32;9.60;74.40
22430;DHT22;11382;48.086;11.632;2023-02-11T13:02:05;9.30;74.90
22430;DHT22;11382;48.086;11.632;2023-02-11T13:04:40;9.50;74.80
22430;DHT22;11382;48.086;11.632;2023-02-11T13:07:13;9.80;75.60
22430;DHT22;11382;48.086;11.632;2023-02-11T13:09:47;9.80;74.50
22430;DHT22;11382;48.086;11.632;2023-02-11T13:12:16;9.60;74.50
22430;DHT22;11382;48.086;11.632;2023-02-11T13:15:06;9.60;74.70
22430;DHT22;11382;48.086;11.632;2023-02-11T13:17:39;9.80;76.00
22430;DHT22;11382;48.086;11.632;2023-02-11T13:20:17;9.80;75.70
22430;DHT22;11382;48.086;11.632;2023-02-11T13:22:52;9.80;76.00
22430;DHT22;11382;48.086;11.632;2023-02-11T13:25:29;9.70;76.00
22430;DHT22;11382;48.086;11.632;2023-02-11T13:28:19;9.30;73.60
22430;DHT22;11382;48.086;11.632;2023-02-11T13:30:54;8.90;74.50
22430;DHT22;11382;48.086;11.632;2023-02-11T13:33:33;8.80;75.50
22430;DHT22;11382;48.086;11.632;2023-02-11T13:36:16;8.90;76.00
22430;DHT22;11382;48.086;11.632;2023-02-11T13:38:55;9.10;76.20
22430;DHT22;11382;48.086;11.632;2023-02-11T13:41:28;9.40;75.60
22430;DHT22;11382;48.086;11.632;2023-02-11T13:44:02;9.70;75.40
22430;DHT22;11382;48.086;11.632;2023-02-11T13:46:48;10.00;74.80
22430;DHT22;11382;48.086;11.632;2023-02-11T13:49:19;10.10;73.40
22430;DHT22;11382;48.086;11.632;2023-02-11T13:51:48;10.10;72.80
22430;DHT22;11382;48.086;11.632;2023-02-11T13:54:25;10.00;72.80
22430;DHT22;11382;48.086;11.632;2023-02-11T14:03:25;10.00;73.30
22430;DHT22;11382;48.086;11.632;2023-02-11T14:06:14;10.00;73.80
22430;DHT22;11382;48.086;11.632;2023-02-11T14:11:51;9.70;73.90
22430;DHT22;11382;48.086;11.632;2023-02-11T14:14:23;9.70;73.10
22430;DHT22;11382;48.086;11.632;2023-02-11T14:17:16;9.80;74.40
22430;DHT22;11382;48.086;11.632;2023-02-11T14:19:46;9.80;74.20
22430;DHT22;11382;48.086;11.632;2023-02-11T14:22:17;9.70;75.40
22430;DHT22;11382;48.086;11.632;2023-02-11T14:24:52;9.70;75.80
22430;DHT22;11382;48.086;11.632;2023-02-11T14:27:26;9.70;75.40
22430;DHT22;11382;48.086;11.632;2023-02-11T14:33:13;9.60;75.20
22430;DHT22;11382;48.086;11.632;2023-02-11T14:35:53;9.50;74.70
22430;DHT22;11382;48.086;11.632;2023-02-11T14:38:30;9.30;75.60
22430;DHT22;11382;48.086;11.632;2023-02-11T14:41:05;9.40;75.90
22430;DHT22;11382;48.086;11.632;2023-02-11T14:43:37;9.50;76.30
22430;DHT22;11382;48.086;11.632;2023-02-11T14:46:06;9.50;76.30
22430;DHT22;11382;48.086;11.632;2023-02-11T14:48:37;9.40;76.50
22430;DHT22;11382;48.086;11.632;2023-02-11T14:51:10;9.40;78.20
22430;DHT22;11382;48.086;11.632;2023-02-11T14:53:44;9.40;79.00
22430;DHT22;11382;48.086;11.632;2023-02-11T14:56:18;9.30;79.10
22430;DHT22;11382;48.086;11.632;2023-02-11T14:58:47;9.40;79.60
22430;DHT22;11382;48.086;11.632;2023-02-11T15:01:26;9.70;78.70
22430;DHT22;11382;48.086;11.632;2023-02-11T15:03:55;9.80;78.70
22430;DHT22;11382;48.086;11.632;2023-02-11T15:06:29;9.90;78.10
22430;DHT22;11382;48.086;11.632;2023-02-11T15:09:00;9.80;78.50
22430;DHT22;11382;48.086;11.632;2023-02-11T15:11:32;9.60;79.30
22430;DHT22;11382;48.086;11.632;2023-02-11T15:14:08;9.50;79.50
22430;DHT22;11382;48.086;11.632;2023-02-11T15:16:40;9.50;79.90
22430;DHT22;11382;48.086;11.632;2023-02-11T15:19:18;9.30;80.00
22430;DHT22;11382;48.086;11.632;2023-02-11T15:21:49;9.20;81.30
22430;DHT22;11382;48.086;11.632;2023-02-11T15:24:21;9.10;81.60
22430;DHT22;11382;48.086;11.632;2023-02-11T15:26:59;9.00;81.90
22430;DHT22;11382;48.086;11.632;2023-02-11T15:29:33;8.80;82.00
22430;DHT22;11382;48.086;11.632;2023-02-11T15:32:03;8.70;82.40
22430;DHT22;11382;48.086;11.632;2023-02-11T15:34:33;8.60;83.80
22430;DHT22;11382;48.086;11.632;2023-02-11T15:37:04;8.60;83.90
22430;DHT22;11382;48.086;11.632;2023-02-11T15:39:36;8.60;84.20
22430;DHT22;11382;48.086;11.632;2023-02-11T15:42:22;8.60;84.30
22430;DHT22;11382;48.086;11.632;2023-02-11T15:45:09;8.50;85.40
22430;DHT22;11382;48.086;11.632;2023-02-11T15:47:38;8.40;85.70
22430;DHT22;11382;48.086;11.632;2023-02-11T15:50:19;8.30;86.60
22430;DHT22;11382;48.086;11.632;2023-02-11T15:52:49;8.10;87.60
22430;DHT22;11382;48.086;11.632;2023-02-11T15:55:17;8.10;87.50
22430;DHT22;11382;48.086;11.632;2023-02-11T15:57:52;8.00;89.00
22430;DHT22;11382;48.086;11.632;2023-02-11T16:00:23;7.90;88.30
22430;DHT22;11382;48.086;11.632;2023-02-11T16:02:52;7.90;89.10
22430;DHT22;11382;48.086;11.632;2023-02-11T16:05:30;7.80;89.70
22430;DHT22;11382;48.086;11.632;2023-02-11T16:08:10;7.70;90.10
22430;DHT22;11382;48.086;11.632;2023-02-11T16:10:39;7.60;90.30
22430;DHT22;11382;48.086;11.632;2023-02-11T16:13:19;7.60;90.40